Watauga, Texas
Current Conditions -  °F | °C
As of 11:53 AM on Sunday 23 Nov 2014 (Local Time) from KFTW Reporting Station
Clear Clear  
Wind Chill: 70°   Ceiling: Unl
Heat Index: 70°   Visibility: 10mi
Dew Point: 47°   Wind: 17mph
Humidity: 44%   Direction: 240°WSW
Pressure: 29.43"   Gusts: 24mph
Location:  32.8687°N, 97.2516°W
Report Text: KFTW 231753Z 24015G21KT 10SM CLR 21/08 A2943 RMK AO2 SLP961 T02110083 10211 20111 58035
Loading
Personal Weather Stations






























Interactive Weather Map New forecast layout! Learn more

10-Day Weather Forecast

Advertisements
Track Severe Weather on mobile